PWSweather.com
Personal Weather Stations
Station Observations
KMIEASTT1
Tawas Bay, East Tawas, MI 48730

Tawas BayEast Tawas, MI 48730

Lat: 44.28, Lon: -83.48

Elevation: 600

Station Type: Davis VantagePro

http://www.tawasbayweather.com

High Low Average
Temperature 38.4°F3.6°C 22.3°F-5.4°C 28.4°F-2.0°C
Dew Point 18.6°F-7.4°C 11.5°F-11.4°C 15.5°F-9.2°C
Winds 16.0 mph 25.7 kmh 1.0 mph 1.6 kmh 8.0 mph WSW12.9 kmh WSW
Wind Gusts 24.0 mph38.6 kmh 3.0 mph4.8 kmh 11.0 mph17.7 kmh
Humidity 78% 33% 60%
Pressure 30.06 in1017.9 mb 29.94 in1013.9 mb -
Precipitation 0.00 in0.0 mm - -
Hour Temp Dew Point Humidity Winds Wind Gusts Pressure Precip Precip Rate Daily Precip Total
12:02 AM 25.0°F-3.9°C 14.6°F-9.7°C 64% 8.0 mph WSW12.9 kmh WSW 12.0 mph19.3 kmh 30.05 in1017.6 mb 0.00 in0.0 mm 0.00 in/hr0.0 mm/hr 0.00 in0.0 mm
12:15 AM 24.7°F-4.1°C 14.6°F-9.7°C 65% 8.0 mph WSW12.9 kmh WSW 11.0 mph17.7 kmh 30.04 in1017.3 mb 0.00 in0.0 mm 0.00 in/hr0.0 mm/hr 0.00 in0.0 mm
12:31 AM 24.4°F-4.2°C 14.7°F-9.6°C 66% 5.0 mph WSW8.0 kmh WSW 9.0 mph14.5 kmh 30.04 in1017.3 mb 0.00 in0.0 mm 0.00 in/hr0.0 mm/hr 0.00 in0.0 mm
12:46 AM 24.3°F-4.3°C 14.9°F-9.5°C 67% 4.0 mph W6.4 kmh W 9.0 mph14.5 kmh 30.05 in1017.6 mb 0.00 in0.0 mm 0.00 in/hr0.0 mm/hr 0.00 in0.0 mm
01:02 AM 24.3°F-4.3°C 15.3°F-9.3°C 68% 3.0 mph W4.8 kmh W 10.0 mph16.1 kmh 30.05 in1017.6 mb 0.00 in0.0 mm 0.00 in/hr0.0 mm/hr 0.00 in0.0 mm
01:15 AM 24.2°F-4.3°C 15.2°F-9.3°C 68% 4.0 mph WSW6.4 kmh WSW 7.0 mph11.3 kmh 30.05 in1017.6 mb 0.00 in0.0 mm 0.00 in/hr0.0 mm/hr 0.00 in0.0 mm
01:31 AM 24.2°F-4.3°C 15.2°F-9.3°C 68% 4.0 mph WSW6.4 kmh WSW 9.0 mph14.5 kmh 30.04 in1017.3 mb 0.00 in0.0 mm 0.00 in/hr0.0 mm/hr 0.00 in0.0 mm
01:46 AM 24.0°F-4.4°C 15.3°F-9.3°C 69% 6.0 mph WSW9.7 kmh WSW 7.0 mph11.3 kmh 30.05 in1017.6 mb 0.00 in0.0 mm 0.00 in/hr0.0 mm/hr 0.00 in0.0 mm
02:02 AM 23.9°F-4.5°C 15.2°F-9.3°C 69% 6.0 mph WSW9.7 kmh WSW 7.0 mph11.3 kmh 30.05 in1017.6 mb 0.00 in0.0 mm 0.00 in/hr0.0 mm/hr 0.00 in0.0 mm
02:16 AM 23.8°F-4.6°C 15.1°F-9.4°C 69% 3.0 mph W4.8 kmh W 6.0 mph9.7 kmh 30.05 in1017.6 mb 0.00 in0.0 mm 0.00 in/hr0.0 mm/hr 0.00 in0.0 mm
02:30 AM 23.7°F-4.6°C 15.4°F-9.2°C 70% 5.0 mph WSW8.0 kmh WSW 6.0 mph9.7 kmh 30.05 in1017.6 mb 0.00 in0.0 mm 0.00 in/hr0.0 mm/hr 0.00 in0.0 mm
02:46 AM 23.6°F-4.7°C 15.3°F-9.3°C 70% 4.0 mph W6.4 kmh W 6.0 mph9.7 kmh 30.05 in1017.6 mb 0.00 in0.0 mm 0.00 in/hr0.0 mm/hr 0.00 in0.0 mm
03:01 AM 23.5°F-4.7°C 15.2°F-9.3°C 70% 3.0 mph W4.8 kmh W 6.0 mph9.7 kmh 30.04 in1017.3 mb 0.00 in0.0 mm 0.00 in/hr0.0 mm/hr 0.00 in0.0 mm
03:16 AM 23.4°F-4.8°C 15.4°F-9.2°C 71% 3.0 mph W4.8 kmh W 3.0 mph4.8 kmh 30.04 in1017.3 mb 0.00 in0.0 mm 0.00 in/hr0.0 mm/hr 0.00 in0.0 mm
03:30 AM 23.3°F-4.8°C 15.3°F-9.3°C 71% 1.0 mph W1.6 kmh W 4.0 mph6.4 kmh 30.04 in1017.3 mb 0.00 in0.0 mm 0.00 in/hr0.0 mm/hr 0.00 in0.0 mm
03:46 AM 23.1°F-4.9°C 15.1°F-9.4°C 71% 4.0 mph WSW6.4 kmh WSW 4.0 mph6.4 kmh 30.04 in1017.3 mb 0.00 in0.0 mm 0.00 in/hr0.0 mm/hr 0.00 in0.0 mm
04:02 AM 22.9°F-5.1°C 16.2°F-8.8°C 75% 4.0 mph WSW6.4 kmh WSW 4.0 mph6.4 kmh 30.04 in1017.3 mb 0.00 in0.0 mm 0.00 in/hr0.0 mm/hr 0.00 in0.0 mm
04:16 AM 23.0°F-5.0°C 16.6°F-8.6°C 76% 2.0 mph WSW3.2 kmh WSW 4.0 mph6.4 kmh 30.04 in1017.3 mb 0.00 in0.0 mm 0.00 in/hr0.0 mm/hr 0.00 in0.0 mm
04:31 AM 23.6°F-4.7°C 17.2°F-8.2°C 76% 6.0 mph SW9.7 kmh SW 8.0 mph12.9 kmh 30.04 in1017.3 mb 0.00 in0.0 mm 0.00 in/hr0.0 mm/hr 0.00 in0.0 mm
04:46 AM 23.8°F-4.6°C 16.7°F-8.5°C 74% 6.0 mph WSW9.7 kmh WSW 8.0 mph12.9 kmh 30.04 in1017.3 mb 0.00 in0.0 mm 0.00 in/hr0.0 mm/hr 0.00 in0.0 mm
05:02 AM 23.8°F-4.6°C 17.1°F-8.3°C 75% 6.0 mph WSW9.7 kmh WSW 9.0 mph14.5 kmh 30.04 in1017.3 mb 0.00 in0.0 mm 0.00 in/hr0.0 mm/hr 0.00 in0.0 mm
05:16 AM 23.9°F-4.5°C 17.1°F-8.3°C 75% 7.0 mph SW11.3 kmh SW 7.0 mph11.3 kmh 30.04 in1017.3 mb 0.00 in0.0 mm 0.00 in/hr0.0 mm/hr 0.00 in0.0 mm
05:31 AM 23.6°F-4.7°C 16.9°F-8.4°C 75% 5.0 mph WSW8.0 kmh WSW 7.0 mph11.3 kmh 30.04 in1017.3 mb 0.00 in0.0 mm 0.00 in/hr0.0 mm/hr 0.00 in0.0 mm
05:46 AM 23.2°F-4.9°C 17.1°F-8.3°C 77% 5.0 mph WSW8.0 kmh WSW 7.0 mph11.3 kmh 30.05 in1017.6 mb 0.00 in0.0 mm 0.00 in/hr0.0 mm/hr 0.00 in0.0 mm
06:02 AM 23.4°F-4.8°C 17.0°F-8.3°C 76% 6.0 mph SW9.7 kmh SW 8.0 mph12.9 kmh 30.05 in1017.6 mb 0.00 in0.0 mm 0.00 in/hr0.0 mm/hr 0.00 in0.0 mm
06:15 AM 23.3°F-4.8°C 17.2°F-8.2°C 77% 5.0 mph WSW8.0 kmh WSW 8.0 mph12.9 kmh 30.06 in1017.9 mb 0.00 in0.0 mm 0.00 in/hr0.0 mm/hr 0.00 in0.0 mm
06:31 AM 23.4°F-4.8°C 17.3°F-8.2°C 77% 7.0 mph SW11.3 kmh SW 9.0 mph14.5 kmh 30.06 in1017.9 mb 0.00 in0.0 mm 0.00 in/hr0.0 mm/hr 0.00 in0.0 mm
06:46 AM 23.5°F-4.7°C 16.8°F-8.4°C 75% 8.0 mph SW12.9 kmh SW 9.0 mph14.5 kmh 30.06 in1017.9 mb 0.00 in0.0 mm 0.00 in/hr0.0 mm/hr 0.00 in0.0 mm
07:02 AM 23.3°F-4.8°C 16.9°F-8.4°C 76% 7.0 mph WSW11.3 kmh WSW 7.0 mph11.3 kmh 30.06 in1017.9 mb 0.00 in0.0 mm 0.00 in/hr0.0 mm/hr 0.00 in0.0 mm
07:16 AM 23.2°F-4.9°C 16.5°F-8.6°C 75% 6.0 mph WSW9.7 kmh WSW 7.0 mph11.3 kmh 30.06 in1017.9 mb 0.00 in0.0 mm 0.00 in/hr0.0 mm/hr 0.00 in0.0 mm
07:31 AM 22.9°F-5.1°C 16.2°F-8.8°C 75% 5.0 mph WSW8.0 kmh WSW 6.0 mph9.7 kmh 30.06 in1017.9 mb 0.00 in0.0 mm 0.00 in/hr0.0 mm/hr 0.00 in0.0 mm
07:46 AM 22.8°F-5.1°C 16.1°F-8.8°C 75% 6.0 mph WSW9.7 kmh WSW 6.0 mph9.7 kmh 30.05 in1017.6 mb 0.00 in0.0 mm 0.00 in/hr0.0 mm/hr 0.00 in0.0 mm
08:00 AM 23.1°F-4.9°C 16.1°F-8.8°C 74% 5.0 mph SW8.0 kmh SW 7.0 mph11.3 kmh 30.04 in1017.3 mb 0.00 in0.0 mm 0.00 in/hr0.0 mm/hr 0.00 in0.0 mm
08:16 AM 22.9°F-5.1°C 16.2°F-8.8°C 75% 7.0 mph SW11.3 kmh SW 8.0 mph12.9 kmh 30.03 in1016.9 mb 0.00 in0.0 mm 0.00 in/hr0.0 mm/hr 0.00 in0.0 mm
08:30 AM 22.9°F-5.1°C 16.5°F-8.6°C 76% 6.0 mph SW9.7 kmh SW 10.0 mph16.1 kmh 30.03 in1016.9 mb 0.00 in0.0 mm 0.00 in/hr0.0 mm/hr 0.00 in0.0 mm
08:45 AM 22.5°F-5.3°C 16.7°F-8.5°C 78% 5.0 mph WSW8.0 kmh WSW 8.0 mph12.9 kmh 30.03 in1016.9 mb 0.00 in0.0 mm 0.00 in/hr0.0 mm/hr 0.00 in0.0 mm
09:01 AM 22.6°F-5.2°C 16.5°F-8.6°C 77% 7.0 mph WSW11.3 kmh WSW 8.0 mph12.9 kmh 30.03 in1016.9 mb 0.00 in0.0 mm 0.00 in/hr0.0 mm/hr 0.00 in0.0 mm
09:16 AM 22.3°F-5.4°C 16.2°F-8.8°C 77% 7.0 mph WSW11.3 kmh WSW 8.0 mph12.9 kmh 30.04 in1017.3 mb 0.00 in0.0 mm 0.00 in/hr0.0 mm/hr 0.00 in0.0 mm
09:30 AM 22.7°F-5.2°C 16.3°F-8.7°C 76% 9.0 mph SW14.5 kmh SW 9.0 mph14.5 kmh 30.05 in1017.6 mb 0.00 in0.0 mm 0.00 in/hr0.0 mm/hr 0.00 in0.0 mm
09:46 AM 22.7°F-5.2°C 16.3°F-8.7°C 76% 8.0 mph WSW12.9 kmh WSW 9.0 mph14.5 kmh 30.05 in1017.6 mb 0.00 in0.0 mm 0.00 in/hr0.0 mm/hr 0.00 in0.0 mm
10:02 AM 23.0°F-5.0°C 16.0°F-8.9°C 74% 6.0 mph SW9.7 kmh SW 9.0 mph14.5 kmh 30.05 in1017.6 mb 0.00 in0.0 mm 0.00 in/hr0.0 mm/hr 0.00 in0.0 mm
10:16 AM 23.3°F-4.8°C 15.9°F-8.9°C 73% 7.0 mph WSW11.3 kmh WSW 9.0 mph14.5 kmh 30.05 in1017.6 mb 0.00 in0.0 mm 0.00 in/hr0.0 mm/hr 0.00 in0.0 mm
10:31 AM 23.9°F-4.5°C 16.2°F-8.8°C 72% 9.0 mph WSW14.5 kmh WSW 12.0 mph19.3 kmh 30.05 in1017.6 mb 0.00 in0.0 mm 0.00 in/hr0.0 mm/hr 0.00 in0.0 mm
10:46 AM 24.3°F-4.3°C 16.3°F-8.7°C 71% 9.0 mph WSW14.5 kmh WSW 13.0 mph20.9 kmh 30.06 in1017.9 mb 0.00 in0.0 mm 0.00 in/hr0.0 mm/hr 0.00 in0.0 mm
11:02 AM 25.1°F-3.8°C 16.7°F-8.5°C 70% 9.0 mph WSW14.5 kmh WSW 10.0 mph16.1 kmh 30.05 in1017.6 mb 0.00 in0.0 mm 0.00 in/hr0.0 mm/hr 0.00 in0.0 mm
11:17 AM 26.2°F-3.2°C 16.4°F-8.7°C 66% 11.0 mph W17.7 kmh W 14.0 mph22.5 kmh 30.04 in1017.3 mb 0.00 in0.0 mm 0.00 in/hr0.0 mm/hr 0.00 in0.0 mm
11:31 AM 28.7°F-1.8°C 16.2°F-8.8°C 59% 8.0 mph NW12.9 kmh NW 12.0 mph19.3 kmh 30.04 in1017.3 mb 0.00 in0.0 mm 0.00 in/hr0.0 mm/hr 0.00 in0.0 mm
11:46 AM 28.9°F-1.7°C 15.6°F-9.1°C 57% 16.0 mph WSW25.7 kmh WSW 17.0 mph27.4 kmh 30.04 in1017.3 mb 0.00 in0.0 mm 0.00 in/hr0.0 mm/hr 0.00 in0.0 mm
12:02 PM 29.9°F-1.2°C 15.3°F-9.3°C 54% 10.0 mph WSW16.1 kmh WSW 16.0 mph25.7 kmh 30.04 in1017.3 mb 0.00 in0.0 mm 0.00 in/hr0.0 mm/hr 0.00 in0.0 mm
12:16 PM 30.4°F-0.9°C 14.9°F-9.5°C 52% 10.0 mph W16.1 kmh W 17.0 mph27.4 kmh 30.04 in1017.3 mb 0.00 in0.0 mm 0.00 in/hr0.0 mm/hr 0.00 in0.0 mm
12:31 PM 31.4°F-0.3°C 14.5°F-9.7°C 49% 10.0 mph WSW16.1 kmh WSW 15.0 mph24.1 kmh 30.04 in1017.3 mb 0.00 in0.0 mm 0.00 in/hr0.0 mm/hr 0.00 in0.0 mm
12:47 PM 31.7°F-0.2°C 14.3°F-9.8°C 48% 9.0 mph WSW14.5 kmh WSW 15.0 mph24.1 kmh 30.04 in1017.3 mb 0.00 in0.0 mm 0.00 in/hr0.0 mm/hr 0.00 in0.0 mm
01:02 PM 32.4°F0.2°C 15.9°F-8.9°C 50% 7.0 mph WSW11.3 kmh WSW 15.0 mph24.1 kmh 30.03 in1016.9 mb 0.00 in0.0 mm 0.00 in/hr0.0 mm/hr 0.00 in0.0 mm
01:16 PM 33.7°F0.9°C 12.5°F-10.8°C 41% 8.0 mph W12.9 kmh W 15.0 mph24.1 kmh 30.03 in1016.9 mb 0.00 in0.0 mm 0.00 in/hr0.0 mm/hr 0.00 in0.0 mm
01:30 PM 34.7°F1.5°C 12.9°F-10.6°C 40% 12.0 mph WSW19.3 kmh WSW 19.0 mph30.6 kmh 30.02 in1016.6 mb 0.00 in0.0 mm 0.00 in/hr0.0 mm/hr 0.00 in0.0 mm
01:46 PM 34.6°F1.4°C 14.9°F-9.5°C 44% 11.0 mph W17.7 kmh W 13.0 mph20.9 kmh 30.01 in1016.3 mb 0.00 in0.0 mm 0.00 in/hr0.0 mm/hr 0.00 in0.0 mm
02:00 PM 34.4°F1.3°C 12.6°F-10.8°C 40% 11.0 mph WSW17.7 kmh WSW 21.0 mph33.8 kmh 30.00 in1015.9 mb 0.00 in0.0 mm 0.00 in/hr0.0 mm/hr 0.00 in0.0 mm
02:17 PM 34.6°F1.4°C 14.9°F-9.5°C 44% 13.0 mph WSW20.9 kmh WSW 18.0 mph29.0 kmh 29.99 in1015.6 mb 0.00 in0.0 mm 0.00 in/hr0.0 mm/hr 0.00 in0.0 mm
02:31 PM 36.0°F2.2°C 11.7°F-11.3°C 36% 6.0 mph WSW9.7 kmh WSW 22.0 mph35.4 kmh 29.99 in1015.6 mb 0.00 in0.0 mm 0.00 in/hr0.0 mm/hr 0.00 in0.0 mm
02:45 PM 35.7°F2.1°C 12.6°F-10.8°C 38% 13.0 mph W20.9 kmh W 19.0 mph30.6 kmh 29.99 in1015.6 mb 0.00 in0.0 mm 0.00 in/hr0.0 mm/hr 0.00 in0.0 mm
03:02 PM 36.1°F2.3°C 14.1°F-9.9°C 40% 12.0 mph WSW19.3 kmh WSW 15.0 mph24.1 kmh 29.98 in1015.2 mb 0.00 in0.0 mm 0.00 in/hr0.0 mm/hr 0.00 in0.0 mm
03:16 PM 37.3°F2.9°C 11.5°F-11.4°C 34% 11.0 mph W17.7 kmh W 17.0 mph27.4 kmh 29.97 in1014.9 mb 0.00 in0.0 mm 0.00 in/hr0.0 mm/hr 0.00 in0.0 mm
03:31 PM 36.8°F2.7°C 16.4°F-8.7°C 43% 12.0 mph WSW19.3 kmh WSW 16.0 mph25.7 kmh 29.96 in1014.6 mb 0.00 in0.0 mm 0.00 in/hr0.0 mm/hr 0.00 in0.0 mm
03:46 PM 36.9°F2.7°C 14.3°F-9.8°C 39% 15.0 mph WSW24.1 kmh WSW 20.0 mph32.2 kmh 29.96 in1014.6 mb 0.00 in0.0 mm 0.00 in/hr0.0 mm/hr 0.00 in0.0 mm
04:02 PM 36.8°F2.7°C 14.2°F-9.9°C 39% 14.0 mph WSW22.5 kmh WSW 20.0 mph32.2 kmh 29.96 in1014.6 mb 0.00 in0.0 mm 0.00 in/hr0.0 mm/hr 0.00 in0.0 mm
04:15 PM 38.1°F3.4°C 11.6°F-11.3°C 33% 12.0 mph WSW19.3 kmh WSW 18.0 mph29.0 kmh 29.96 in1014.6 mb 0.00 in0.0 mm 0.00 in/hr0.0 mm/hr 0.00 in0.0 mm
04:30 PM 37.3°F2.9°C 12.2°F-11.0°C 35% 14.0 mph WSW22.5 kmh WSW 24.0 mph38.6 kmh 29.95 in1014.2 mb 0.00 in0.0 mm 0.00 in/hr0.0 mm/hr 0.00 in0.0 mm
04:46 PM 38.4°F3.6°C 12.5°F-10.8°C 34% 7.0 mph W11.3 kmh W 15.0 mph24.1 kmh 29.95 in1014.2 mb 0.00 in0.0 mm 0.00 in/hr0.0 mm/hr 0.00 in0.0 mm
05:02 PM 36.8°F2.7°C 15.9°F-8.9°C 42% 10.0 mph WSW16.1 kmh WSW 15.0 mph24.1 kmh 29.95 in1014.2 mb 0.00 in0.0 mm 0.00 in/hr0.0 mm/hr 0.00 in0.0 mm
05:15 PM 37.6°F3.1°C 16.1°F-8.8°C 41% 14.0 mph WSW22.5 kmh WSW 14.0 mph22.5 kmh 29.95 in1014.2 mb 0.00 in0.0 mm 0.00 in/hr0.0 mm/hr 0.00 in0.0 mm
05:31 PM 36.7°F2.6°C 16.9°F-8.4°C 44% 9.0 mph WSW14.5 kmh WSW 17.0 mph27.4 kmh 29.95 in1014.2 mb 0.00 in0.0 mm 0.00 in/hr0.0 mm/hr 0.00 in0.0 mm
05:46 PM 37.1°F2.8°C 12.6°F-10.8°C 36% 10.0 mph WSW16.1 kmh WSW 16.0 mph25.7 kmh 29.95 in1014.2 mb 0.00 in0.0 mm 0.00 in/hr0.0 mm/hr 0.00 in0.0 mm
06:02 PM 36.6°F2.6°C 14.0°F-10.0°C 39% 15.0 mph WSW24.1 kmh WSW 17.0 mph27.4 kmh 29.95 in1014.2 mb 0.00 in0.0 mm 0.00 in/hr0.0 mm/hr 0.00 in0.0 mm
06:16 PM 36.3°F2.4°C 13.7°F-10.2°C 39% 13.0 mph WSW20.9 kmh WSW 15.0 mph24.1 kmh 29.94 in1013.9 mb 0.00 in0.0 mm 0.00 in/hr0.0 mm/hr 0.00 in0.0 mm
06:31 PM 35.2°F1.8°C 15.5°F-9.2°C 44% 7.0 mph W11.3 kmh W 11.0 mph17.7 kmh 29.94 in1013.9 mb 0.00 in0.0 mm 0.00 in/hr0.0 mm/hr 0.00 in0.0 mm
06:46 PM 34.4°F1.3°C 16.8°F-8.4°C 48% 6.0 mph WSW9.7 kmh WSW 12.0 mph19.3 kmh 29.94 in1013.9 mb 0.00 in0.0 mm 0.00 in/hr0.0 mm/hr 0.00 in0.0 mm
07:01 PM 33.9°F1.1°C 17.2°F-8.2°C 50% 7.0 mph SW11.3 kmh SW 10.0 mph16.1 kmh 29.95 in1014.2 mb 0.00 in0.0 mm 0.00 in/hr0.0 mm/hr 0.00 in0.0 mm
07:16 PM 33.4°F0.8°C 18.6°F-7.4°C 54% 6.0 mph WSW9.7 kmh WSW 9.0 mph14.5 kmh 29.95 in1014.2 mb 0.00 in0.0 mm 0.00 in/hr0.0 mm/hr 0.00 in0.0 mm
07:31 PM 33.4°F0.8°C 17.7°F-7.9°C 52% 9.0 mph WSW14.5 kmh WSW 13.0 mph20.9 kmh 29.96 in1014.6 mb 0.00 in0.0 mm 0.00 in/hr0.0 mm/hr 0.00 in0.0 mm
07:45 PM 33.3°F0.7°C 18.0°F-7.8°C 53% 11.0 mph WSW17.7 kmh WSW 13.0 mph20.9 kmh 29.96 in1014.6 mb 0.00 in0.0 mm 0.00 in/hr0.0 mm/hr 0.00 in0.0 mm
08:02 PM 33.2°F0.7°C 17.5°F-8.1°C 52% 11.0 mph SW17.7 kmh SW 15.0 mph24.1 kmh 29.96 in1014.6 mb 0.00 in0.0 mm 0.00 in/hr0.0 mm/hr 0.00 in0.0 mm
08:16 PM 33.3°F0.7°C 17.1°F-8.3°C 51% 12.0 mph WSW19.3 kmh WSW 18.0 mph29.0 kmh 29.96 in1014.6 mb 0.00 in0.0 mm 0.00 in/hr0.0 mm/hr 0.00 in0.0 mm
08:31 PM 33.2°F0.7°C 17.9°F-7.8°C 53% 9.0 mph SW14.5 kmh SW 13.0 mph20.9 kmh 29.96 in1014.6 mb 0.00 in0.0 mm 0.00 in/hr0.0 mm/hr 0.00 in0.0 mm
08:46 PM 33.1°F0.6°C 18.3°F-7.6°C 54% 12.0 mph WSW19.3 kmh WSW 15.0 mph24.1 kmh 29.96 in1014.6 mb 0.00 in0.0 mm 0.00 in/hr0.0 mm/hr 0.00 in0.0 mm
09:01 PM 33.0°F0.6°C 17.3°F-8.2°C 52% 11.0 mph SW17.7 kmh SW 15.0 mph24.1 kmh 29.96 in1014.6 mb 0.00 in0.0 mm 0.00 in/hr0.0 mm/hr 0.00 in0.0 mm
09:16 PM 32.9°F0.5°C 18.1°F-7.7°C 54% 12.0 mph SW19.3 kmh SW 17.0 mph27.4 kmh 29.96 in1014.6 mb 0.00 in0.0 mm 0.00 in/hr0.0 mm/hr 0.00 in0.0 mm
09:30 PM 32.6°F0.3°C 18.2°F-7.7°C 55% 10.0 mph SW16.1 kmh SW 13.0 mph20.9 kmh 29.96 in1014.6 mb 0.00 in0.0 mm 0.00 in/hr0.0 mm/hr 0.00 in0.0 mm
09:46 PM 32.6°F0.3°C 18.2°F-7.7°C 55% 10.0 mph WSW16.1 kmh WSW 14.0 mph22.5 kmh 29.96 in1014.6 mb 0.00 in0.0 mm 0.00 in/hr0.0 mm/hr 0.00 in0.0 mm
10:02 PM 32.3°F0.2°C 18.8°F-7.3°C 57% 13.0 mph WSW20.9 kmh WSW 15.0 mph24.1 kmh 29.95 in1014.2 mb 0.00 in0.0 mm 0.00 in/hr0.0 mm/hr 0.00 in0.0 mm
10:16 PM 32.1°F0.1°C 19.0°F-7.2°C 58% 12.0 mph SW19.3 kmh SW 17.0 mph27.4 kmh 29.95 in1014.2 mb 0.00 in0.0 mm 0.00 in/hr0.0 mm/hr 0.00 in0.0 mm
10:31 PM 32.0°F0.0°C 20.5°F-6.4°C 62% 12.0 mph WSW19.3 kmh WSW 15.0 mph24.1 kmh 29.95 in1014.2 mb 0.00 in0.0 mm 0.00 in/hr0.0 mm/hr 0.00 in0.0 mm
10:45 PM 31.9°F-0.1°C 19.6°F-6.9°C 60% 13.0 mph SW20.9 kmh SW 18.0 mph29.0 kmh 29.95 in1014.2 mb 0.00 in0.0 mm 0.00 in/hr0.0 mm/hr 0.00 in0.0 mm
11:02 PM 31.8°F-0.1°C 20.7°F-6.3°C 63% 11.0 mph SW17.7 kmh SW 15.0 mph24.1 kmh 29.96 in1014.6 mb 0.00 in0.0 mm 0.00 in/hr0.0 mm/hr 0.00 in0.0 mm
11:15 PM 31.7°F-0.2°C 19.8°F-6.8°C 61% 11.0 mph SW17.7 kmh SW 16.0 mph25.7 kmh 29.96 in1014.6 mb 0.00 in0.0 mm 0.00 in/hr0.0 mm/hr 0.00 in0.0 mm
11:31 PM 31.4°F-0.3°C 21.0°F-6.1°C 65% 9.0 mph WSW14.5 kmh WSW 13.0 mph20.9 kmh 29.96 in1014.6 mb 0.00 in0.0 mm 0.00 in/hr0.0 mm/hr 0.00 in0.0 mm
11:46 PM 31.4°F-0.3°C 20.7°F-6.3°C 64% 11.0 mph SW17.7 kmh SW 14.0 mph22.5 kmh 29.96 in1014.6 mb 0.00 in0.0 mm 0.00 in/hr0.0 mm/hr 0.00 in0.0 mm